Time,TemperatureF,DewpointF,PressureIn,WindDirection,WindDirectionDegrees,WindSpeedMPH,WindSpeedGustMPH,Humidity,HourlyPrecipIn,Conditions,Clouds,dailyrainin,SoftwareType,DateUTC
2013-10-25 00:01:00,30.8,30.3,30.23,WSW,250,0.0,0.0,98,0.00,,,0.00,Wunderground v.1.15,2013-10-25 04:01:00,
2013-10-25 00:02:00,30.8,30.3,30.23,WSW,250,0.0,0.0,98,0.00,,,0.00,Wunderground v.1.15,2013-10-25 04:02:00,
2013-10-25 00:05:00,30.7,30.2,30.23,West,274,0.0,0.0,98,0.00,,,0.00,Wunderground v.1.15,2013-10-25 04:05:00,
2013-10-25 00:08:00,30.7,30.2,30.24,WSW,238,0.0,0.0,98,0.00,,,0.00,Wunderground v.1.15,2013-10-25 04:08:00,
2013-10-25 00:11:00,30.7,30.2,30.23,WSW,238,0.0,0.0,98,0.00,,,0.00,Wunderground v.1.15,2013-10-25 04:11:00,
2013-10-25 00:15:00,30.6,30.1,30.24,WSW,240,0.0,0.0,98,0.00,,,0.00,Wunderground v.1.15,2013-10-25 04:15:00,
2013-10-25 00:21:00,30.6,30.1,30.24,WSW,248,0.0,0.0,98,0.00,,,0.00,Wunderground v.1.15,2013-10-25 04:21:00,
2013-10-25 00:26:00,30.5,30.0,30.24,SSW,205,0.0,2.0,98,0.00,,,0.00,Wunderground v.1.15,2013-10-25 04:26:00,
2013-10-25 00:32:00,30.5,30.0,30.24,SSW,205,0.0,0.0,98,0.00,,,0.00,Wunderground v.1.15,2013-10-25 04:32:00,
2013-10-25 00:37:00,30.5,30.0,30.24,SW,217,0.0,0.0,98,0.00,,,0.00,Wunderground v.1.15,2013-10-25 04:37:00,
2013-10-25 00:43:00,30.6,30.1,30.24,SSW,205,0.0,0.0,98,0.00,,,0.00,Wunderground v.1.15,2013-10-25 04:43:00,
2013-10-25 00:48:00,30.6,30.1,30.24,WSW,242,0.0,1.0,98,0.00,,,0.00,Wunderground v.1.15,2013-10-25 04:48:00,
2013-10-25 00:54:00,30.7,30.2,30.24,WSW,248,0.0,0.0,98,0.00,,,0.00,Wunderground v.1.15,2013-10-25 04:54:00,
2013-10-25 01:00:00,30.8,30.3,30.24,WSW,255,0.0,0.0,98,0.00,,,0.00,Wunderground v.1.15,2013-10-25 05:00:00,
2013-10-25 01:05:00,30.8,30.3,30.25,WNW,288,0.0,0.0,98,0.00,,,0.00,Wunderground v.1.15,2013-10-25 05:05:00,
2013-10-25 01:11:00,30.8,30.3,30.25,West,278,0.0,0.0,98,0.00,,,0.00,Wunderground v.1.15,2013-10-25 05:11:00,
2013-10-25 01:16:00,30.8,30.3,30.25,SW,217,0.0,2.0,98,0.00,,,0.00,Wunderground v.1.15,2013-10-25 05:16:00,
2013-10-25 01:21:00,30.9,30.4,30.25,WSW,257,1.0,1.0,98,0.00,,,0.00,Wunderground v.1.15,2013-10-25 05:21:00,
2013-10-25 01:27:00,30.8,30.3,30.25,West,262,0.0,1.0,98,0.00,,,0.00,Wunderground v.1.15,2013-10-25 05:27:00,
2013-10-25 01:32:00,30.8,30.3,30.25,NW,316,0.0,1.0,98,0.00,,,0.00,Wunderground v.1.15,2013-10-25 05:32:00,
2013-10-25 01:38:00,30.8,30.3,30.25,WSW,252,0.0,1.0,98,0.00,,,0.00,Wunderground v.1.15,2013-10-25 05:38:00,
2013-10-25 01:43:00,30.8,30.3,30.25,SW,229,1.0,1.0,98,0.00,,,0.00,Wunderground v.1.15,2013-10-25 05:43:00,
2013-10-25 01:49:00,30.7,30.2,30.25,NW,310,1.0,2.0,98,0.00,,,0.00,Wunderground v.1.15,2013-10-25 05:49:00,
2013-10-25 01:55:00,30.7,30.2,30.25,WSW,250,0.0,1.0,98,0.00,,,0.00,Wunderground v.1.15,2013-10-25 05:55:00,
2013-10-25 02:00:00,30.7,30.2,30.26,WSW,257,0.0,0.0,98,0.00,,,0.00,Wunderground v.1.15,2013-10-25 06:00:00,
2013-10-25 02:05:00,30.7,30.2,30.26,NNW,338,0.0,1.0,98,0.00,,,0.00,Wunderground v.1.15,2013-10-25 06:05:00,
2013-10-25 02:10:00,30.6,30.1,30.26,West,262,0.0,0.0,98,0.00,,,0.00,Wunderground v.1.15,2013-10-25 06:10:00,
2013-10-25 02:15:00,30.7,30.2,30.26,ENE,78,0.0,1.0,98,0.00,,,0.00,Wunderground v.1.15,2013-10-25 06:15:00,
2013-10-25 02:20:00,30.7,30.2,30.26,WSW,243,0.0,0.0,98,0.00,,,0.00,Wunderground v.1.15,2013-10-25 06:20:00,
2013-10-25 02:25:00,30.6,30.1,30.26,NW,305,1.0,1.0,98,0.00,,,0.00,Wunderground v.1.15,2013-10-25 06:25:00,
2013-10-25 02:30:00,30.6,30.1,30.26,West,272,0.0,0.0,98,0.00,,,0.00,Wunderground v.1.15,2013-10-25 06:30:00,
2013-10-25 02:35:00,30.6,30.1,30.26,WSW,250,0.0,3.0,98,0.00,,,0.00,Wunderground v.1.15,2013-10-25 06:35:00,
2013-10-25 02:40:00,30.6,30.1,30.26,NW,326,0.0,0.0,98,0.00,,,0.00,Wunderground v.1.15,2013-10-25 06:40:00,
2013-10-25 02:45:00,30.6,30.1,30.26,NW,310,0.0,0.0,98,0.00,,,0.00,Wunderground v.1.15,2013-10-25 06:45:00,
2013-10-25 02:50:00,30.6,30.1,30.26,WSW,245,0.0,0.0,98,0.00,,,0.00,Wunderground v.1.15,2013-10-25 06:50:00,
2013-10-25 02:55:00,30.6,30.1,30.26,SW,219,0.0,1.0,98,0.00,,,0.00,Wunderground v.1.15,2013-10-25 06:55:00,
2013-10-25 03:00:00,30.6,30.1,30.26,WNW,300,0.0,0.0,98,0.00,,,0.00,Wunderground v.1.15,2013-10-25 07:00:00,
2013-10-25 03:05:00,30.6,30.1,30.26,NW,312,0.0,2.0,98,0.00,,,0.00,Wunderground v.1.15,2013-10-25 07:05:00,
2013-10-25 03:10:00,30.6,30.1,30.26,NW,322,0.0,0.0,98,0.00,,,0.00,Wunderground v.1.15,2013-10-25 07:10:00,
2013-10-25 03:15:00,30.6,30.1,30.27,North,360,0.0,1.0,98,0.00,,,0.00,Wunderground v.1.15,2013-10-25 07:15:00,
2013-10-25 03:20:00,30.6,30.1,30.27,NW,311,1.0,1.0,98,0.00,,,0.00,Wunderground v.1.15,2013-10-25 07:20:00,
2013-10-25 03:25:00,30.6,30.1,30.27,NW,319,2.0,2.0,98,0.00,,,0.00,Wunderground v.1.15,2013-10-25 07:25:00,
2013-10-25 03:30:00,30.6,30.1,30.27,WNW,284,0.0,0.0,98,0.00,,,0.00,Wunderground v.1.15,2013-10-25 07:30:00,
2013-10-25 03:35:00,30.5,30.0,30.27,WNW,290,3.0,3.0,98,0.00,,,0.00,Wunderground v.1.15,2013-10-25 07:35:00,
2013-10-25 03:40:00,30.5,30.0,30.27,NW,310,2.0,3.0,98,0.00,,,0.00,Wunderground v.1.15,2013-10-25 07:40:00,
2013-10-25 03:45:00,30.5,30.0,30.27,WNW,284,0.0,3.0,98,0.00,,,0.00,Wunderground v.1.15,2013-10-25 07:45:00,
2013-10-25 03:50:00,30.4,29.9,30.27,NW,316,0.0,1.0,98,0.00,,,0.00,Wunderground v.1.15,2013-10-25 07:50:00,
2013-10-25 03:55:00,30.4,29.9,30.28,NNW,328,0.0,2.0,98,0.00,,,0.00,Wunderground v.1.15,2013-10-25 07:55:00,
2013-10-25 04:00:00,30.4,29.9,30.27,WSW,243,1.0,2.0,98,0.00,,,0.00,Wunderground v.1.15,2013-10-25 08:00:00,
2013-10-25 04:05:00,30.4,29.9,30.28,NNW,333,1.0,4.0,98,0.00,,,0.00,Wunderground v.1.15,2013-10-25 08:05:00,
2013-10-25 04:10:00,30.3,29.8,30.28,South,188,1.0,1.0,98,0.00,,,0.00,Wunderground v.1.15,2013-10-25 08:10:00,
2013-10-25 04:15:00,30.3,29.8,30.28,NNE,19,0.0,3.0,98,0.00,,,0.00,Wunderground v.1.15,2013-10-25 08:15:00,
2013-10-25 04:20:00,30.4,29.9,30.28,WNW,287,0.0,1.0,98,0.00,,,0.00,Wunderground v.1.15,2013-10-25 08:20:00,
2013-10-25 04:25:00,30.2,29.7,30.28,NW,325,3.0,6.0,98,0.00,,,0.00,Wunderground v.1.15,2013-10-25 08:25:00,
2013-10-25 04:30:00,30.1,29.6,30.28,WNW,295,1.0,2.0,98,0.00,,,0.00,Wunderground v.1.15,2013-10-25 08:30:00,
2013-10-25 04:35:00,30.1,29.6,30.28,WSW,257,0.0,3.0,98,0.00,,,0.00,Wunderground v.1.15,2013-10-25 08:35:00,
2013-10-25 04:40:00,30.0,29.5,30.29,WNW,287,0.0,1.0,98,0.00,,,0.00,Wunderground v.1.15,2013-10-25 08:40:00,
2013-10-25 04:45:00,29.9,29.4,30.29,NNW,334,4.0,4.0,98,0.00,,,0.00,Wunderground v.1.15,2013-10-25 08:45:00,
2013-10-25 04:50:00,29.8,29.3,30.29,NNE,12,0.0,1.0,98,0.00,,,0.00,Wunderground v.1.15,2013-10-25 08:50:00,
2013-10-25 04:55:00,29.7,29.2,30.29,WNW,285,1.0,5.0,98,0.00,,,0.00,Wunderground v.1.15,2013-10-25 08:55:00,
2013-10-25 05:00:00,29.6,29.1,30.29,NW,314,0.0,2.0,98,0.00,,,0.00,Wunderground v.1.15,2013-10-25 09:00:00,
2013-10-25 05:05:00,29.6,29.1,30.29,NW,314,2.0,6.0,98,0.00,,,0.00,Wunderground v.1.15,2013-10-25 09:05:00,
2013-10-25 05:10:00,29.5,29.0,30.30,NW,316,0.0,5.0,98,0.00,,,0.00,Wunderground v.1.15,2013-10-25 09:10:00,
2013-10-25 05:15:00,29.5,29.0,30.30,NW,313,1.0,5.0,98,0.00,,,0.00,Wunderground v.1.15,2013-10-25 09:15:00,
2013-10-25 05:20:00,29.5,29.0,30.30,NW,309,4.0,4.0,98,0.00,,,0.00,Wunderground v.1.15,2013-10-25 09:20:00,
2013-10-25 05:25:00,29.5,29.0,30.30,NW,318,0.0,4.0,98,0.00,,,0.00,Wunderground v.1.15,2013-10-25 09:25:00,
2013-10-25 05:30:00,29.5,29.0,30.31,NW,316,1.0,3.0,98,0.00,,,0.00,Wunderground v.1.15,2013-10-25 09:30:00,
2013-10-25 05:35:00,29.5,29.0,30.31,NNW,348,0.0,3.0,98,0.00,,,0.00,Wunderground v.1.15,2013-10-25 09:35:00,
2013-10-25 05:40:00,29.5,29.0,30.31,WNW,302,1.0,1.0,98,0.00,,,0.00,Wunderground v.1.15,2013-10-25 09:40:00,
2013-10-25 05:45:00,29.5,29.0,30.31,NW,316,0.0,2.0,98,0.00,,,0.00,Wunderground v.1.15,2013-10-25 09:45:00,
2013-10-25 05:50:00,29.6,29.1,30.31,SW,231,1.0,1.0,98,0.00,,,0.00,Wunderground v.1.15,2013-10-25 09:50:00,
2013-10-25 05:55:00,29.6,29.1,30.31,North,4,1.0,3.0,98,0.00,,,0.00,Wunderground v.1.15,2013-10-25 09:55:00,
2013-10-25 06:00:00,29.5,29.0,30.32,WNW,293,0.0,1.0,98,0.00,,,0.00,Wunderground v.1.15,2013-10-25 10:00:00,
2013-10-25 06:05:00,29.5,29.0,30.32,NW,304,1.0,3.0,98,0.00,,,0.00,Wunderground v.1.15,2013-10-25 10:05:00,
2013-10-25 06:10:00,29.5,29.0,30.32,NNW,340,2.0,2.0,98,0.00,,,0.00,Wunderground v.1.15,2013-10-25 10:10:00,
2013-10-25 06:15:00,29.5,29.0,30.32,WNW,300,3.0,3.0,98,0.00,,,0.00,Wunderground v.1.15,2013-10-25 10:15:00,
2013-10-25 06:26:00,29.6,29.1,30.32,NNW,332,0.0,0.0,98,0.00,,,0.00,Wunderground v.1.15,2013-10-25 10:26:00,
2013-10-25 06:31:00,29.6,29.1,30.33,SSE,162,0.0,2.0,98,0.00,,,0.00,Wunderground v.1.15,2013-10-25 10:31:00,
2013-10-25 06:36:00,29.7,29.2,30.33,North,354,0.0,0.0,98,0.00,,,0.00,Wunderground v.1.15,2013-10-25 10:36:00,
2013-10-25 06:41:00,29.6,29.1,30.33,NNW,330,3.0,3.0,98,0.00,,,0.00,Wunderground v.1.15,2013-10-25 10:41:00,
2013-10-25 06:46:00,29.6,29.1,30.33,North,5,0.0,1.0,98,0.00,,,0.00,Wunderground v.1.15,2013-10-25 10:46:00,
2013-10-25 06:51:00,29.6,29.1,30.33,WNW,300,1.0,3.0,98,0.00,,,0.00,Wunderground v.1.15,2013-10-25 10:51:00,
2013-10-25 06:56:00,29.7,29.2,30.33,NNW,334,1.0,2.0,98,0.00,,,0.00,Wunderground v.1.15,2013-10-25 10:56:00,
2013-10-25 07:01:00,29.7,29.2,30.33,WNW,295,1.0,2.0,98,0.00,,,0.00,Wunderground v.1.15,2013-10-25 11:01:00,
2013-10-25 07:06:00,29.7,29.2,30.34,SW,232,0.0,2.0,98,0.00,,,0.00,Wunderground v.1.15,2013-10-25 11:06:00,
2013-10-25 07:11:00,29.7,29.2,30.34,WSW,245,0.0,3.0,98,0.00,,,0.00,Wunderground v.1.15,2013-10-25 11:11:00,
2013-10-25 07:16:00,29.7,29.2,30.34,North,352,0.0,3.0,98,0.00,,,0.00,Wunderground v.1.15,2013-10-25 11:16:00,
2013-10-25 07:21:00,29.7,29.2,30.34,West,278,5.0,6.0,98,0.00,,,0.00,Wunderground v.1.15,2013-10-25 11:21:00,
2013-10-25 07:26:00,29.6,29.1,30.34,WSW,256,0.0,6.0,98,0.00,,,0.00,Wunderground v.1.15,2013-10-25 11:26:00,
2013-10-25 07:31:00,29.6,29.1,30.34,WNW,294,1.0,2.0,98,0.00,,,0.00,Wunderground v.1.15,2013-10-25 11:31:00,
2013-10-25 07:36:00,29.6,29.1,30.34,WSW,252,0.0,4.0,98,0.00,,,0.00,Wunderground v.1.15,2013-10-25 11:36:00,
2013-10-25 07:41:00,29.5,29.0,30.34,WNW,295,0.0,4.0,98,0.00,,,0.00,Wunderground v.1.15,2013-10-25 11:41:00,
2013-10-25 07:46:00,29.4,28.9,30.34,North,352,1.0,4.0,98,0.00,,,0.00,Wunderground v.1.15,2013-10-25 11:46:00,
2013-10-25 07:51:00,29.4,28.9,30.34,NW,312,0.0,2.0,98,0.00,,,0.00,Wunderground v.1.15,2013-10-25 11:51:00,
2013-10-25 07:56:00,29.5,29.0,30.35,NW,318,2.0,4.0,98,0.00,,,0.00,Wunderground v.1.15,2013-10-25 11:56:00,
2013-10-25 08:01:00,29.4,28.9,30.35,NW,322,0.0,2.0,98,0.00,,,0.00,Wunderground v.1.15,2013-10-25 12:01:00,
2013-10-25 08:06:00,29.4,28.9,30.35,WNW,288,1.0,5.0,98,0.00,,,0.00,Wunderground v.1.15,2013-10-25 12:06:00,
2013-10-25 08:11:00,29.4,28.9,30.36,WSW,246,0.0,2.0,98,0.00,,,0.00,Wunderground v.1.15,2013-10-25 12:11:00,
2013-10-25 08:16:00,29.5,29.0,30.36,South,186,0.0,3.0,98,0.00,,,0.00,Wunderground v.1.15,2013-10-25 12:16:00,
2013-10-25 08:21:00,29.5,29.0,30.36,WNW,302,2.0,5.0,98,0.00,,,0.00,Wunderground v.1.15,2013-10-25 12:21:00,
2013-10-25 08:26:00,29.6,29.1,30.36,WNW,290,3.0,5.0,98,0.00,,,0.00,Wunderground v.1.15,2013-10-25 12:26:00,
2013-10-25 08:31:00,29.5,29.0,30.37,WSW,250,0.0,1.0,98,0.00,,,0.00,Wunderground v.1.15,2013-10-25 12:31:00,
2013-10-25 08:36:00,29.6,29.1,30.37,NW,324,3.0,5.0,98,0.00,,,0.00,Wunderground v.1.15,2013-10-25 12:36:00,
2013-10-25 08:41:00,29.6,29.1,30.37,WNW,302,0.0,2.0,98,0.00,,,0.00,Wunderground v.1.15,2013-10-25 12:41:00,
2013-10-25 08:46:00,29.7,29.2,30.37,WNW,298,1.0,3.0,98,0.00,,,0.00,Wunderground v.1.15,2013-10-25 12:46:00,
2013-10-25 08:51:00,29.7,29.2,30.37,WNW,284,3.0,4.0,98,0.00,,,0.00,Wunderground v.1.15,2013-10-25 12:51:00,
2013-10-25 08:56:00,29.7,29.2,30.38,West,281,0.0,4.0,98,0.00,,,0.00,Wunderground v.1.15,2013-10-25 12:56:00,
2013-10-25 09:01:00,29.8,29.3,30.38,NW,314,0.0,2.0,98,0.00,,,0.00,Wunderground v.1.15,2013-10-25 13:01:00,
2013-10-25 09:06:00,29.8,29.3,30.38,WSW,238,2.0,4.0,98,0.00,,,0.00,Wunderground v.1.15,2013-10-25 13:06:00,
2013-10-25 09:11:00,29.8,29.3,30.39,North,354,0.0,1.0,98,0.00,,,0.00,Wunderground v.1.15,2013-10-25 13:11:00,
2013-10-25 09:16:00,29.8,29.3,30.39,West,259,1.0,7.0,98,0.00,,,0.00,Wunderground v.1.15,2013-10-25 13:16:00,
2013-10-25 09:21:00,29.8,29.1,30.39,NW,304,3.0,7.0,97,0.00,,,0.00,Wunderground v.1.15,2013-10-25 13:21:00,
2013-10-25 09:26:00,29.8,29.1,30.40,WNW,287,6.0,7.0,97,0.00,,,0.00,Wunderground v.1.15,2013-10-25 13:26:00,
2013-10-25 09:31:00,29.9,29.2,30.40,WNW,283,0.0,2.0,97,0.00,,,0.00,Wunderground v.1.15,2013-10-25 13:31:00,
2013-10-25 09:36:00,30.0,29.3,30.40,West,279,0.0,2.0,97,0.00,,,0.00,Wunderground v.1.15,2013-10-25 13:36:00,
2013-10-25 09:41:00,30.2,29.5,30.40,NW,304,3.0,4.0,97,0.00,,,0.00,Wunderground v.1.15,2013-10-25 13:41:00,
2013-10-25 09:46:00,30.1,29.1,30.40,West,280,3.0,7.0,96,0.00,,,0.00,Wunderground v.1.15,2013-10-25 13:46:00,
2013-10-25 09:51:00,30.2,29.2,30.41,NW,318,1.0,2.0,96,0.00,,,0.00,Wunderground v.1.15,2013-10-25 13:51:00,
2013-10-25 09:56:00,30.3,29.3,30.41,WSW,239,3.0,6.0,96,0.00,,,0.00,Wunderground v.1.15,2013-10-25 13:56:00,
2013-10-25 10:01:00,30.3,29.0,30.41,NW,307,1.0,5.0,95,0.00,,,0.00,Wunderground v.1.15,2013-10-25 14:01:00,
2013-10-25 10:06:00,30.3,29.0,30.41,WNW,283,6.0,6.0,95,0.00,,,0.00,Wunderground v.1.15,2013-10-25 14:06:00,
2013-10-25 10:11:00,30.4,29.1,30.41,WNW,285,3.0,5.0,95,0.00,,,0.00,Wunderground v.1.15,2013-10-25 14:11:00,
2013-10-25 10:16:00,30.5,29.2,30.41,WNW,300,5.0,6.0,95,0.00,,,0.00,Wunderground v.1.15,2013-10-25 14:16:00,
2013-10-25 10:21:00,30.6,29.3,30.41,WNW,289,0.0,2.0,95,0.00,,,0.00,Wunderground v.1.15,2013-10-25 14:21:00,
2013-10-25 10:26:00,30.9,29.4,30.41,West,259,4.0,5.0,94,0.00,,,0.00,Wunderground v.1.15,2013-10-25 14:26:00,
2013-10-25 10:31:00,30.9,29.1,30.41,West,281,1.0,4.0,93,0.00,,,0.00,Wunderground v.1.15,2013-10-25 14:31:00,
2013-10-25 10:36:00,30.9,29.1,30.41,NNW,342,2.0,6.0,93,0.00,,,0.00,Wunderground v.1.15,2013-10-25 14:36:00,
2013-10-25 10:41:00,30.8,28.8,30.41,West,278,1.0,8.0,92,0.00,,,0.00,Wunderground v.1.15,2013-10-25 14:41:00,
2013-10-25 10:46:00,30.7,28.7,30.42,WSW,257,0.0,8.0,92,0.00,,,0.00,Wunderground v.1.15,2013-10-25 14:46:00,
2013-10-25 10:51:00,30.7,28.9,30.42,NNW,336,2.0,3.0,93,0.00,,,0.00,Wunderground v.1.15,2013-10-25 14:51:00,
2013-10-25 10:56:00,30.8,28.8,30.42,North,358,1.0,6.0,92,0.00,,,0.00,Wunderground v.1.15,2013-10-25 14:56:00,
2013-10-25 11:01:00,30.9,28.9,30.42,NW,314,2.0,3.0,92,0.00,,,0.00,Wunderground v.1.15,2013-10-25 15:01:00,
2013-10-25 11:06:00,31.2,29.1,30.42,WSW,245,1.0,8.0,92,0.00,,,0.00,Wunderground v.1.15,2013-10-25 15:06:00,
2013-10-25 11:11:00,31.5,29.4,30.42,NE,49,3.0,5.0,92,0.00,,,0.00,Wunderground v.1.15,2013-10-25 15:11:00,
2013-10-25 11:16:00,31.5,29.2,30.42,WNW,290,1.0,7.0,91,0.00,,,0.00,Wunderground v.1.15,2013-10-25 15:16:00,
2013-10-25 11:21:00,32.0,29.7,30.42,SW,225,3.0,3.0,91,0.00,,,0.00,Wunderground v.1.15,2013-10-25 15:21:00,
2013-10-25 11:26:00,32.1,29.5,30.43,West,273,1.0,7.0,90,0.00,,,0.00,Wunderground v.1.15,2013-10-25 15:26:00,
2013-10-25 11:31:00,32.1,29.5,30.43,WNW,295,3.0,4.0,90,0.00,,,0.00,Wunderground v.1.15,2013-10-25 15:31:00,
2013-10-25 11:36:00,32.5,29.9,30.43,WNW,300,5.0,7.0,90,0.00,,,0.00,Wunderground v.1.15,2013-10-25 15:36:00,
2013-10-25 11:41:00,32.7,29.8,30.43,West,274,4.0,7.0,89,0.00,,,0.00,Wunderground v.1.15,2013-10-25 15:41:00,
2013-10-25 11:46:00,33.1,30.5,30.43,WNW,300,1.0,9.0,90,0.00,,,0.00,Wunderground v.1.15,2013-10-25 15:46:00,
2013-10-25 11:51:00,32.9,29.5,30.43,WNW,284,1.0,6.0,87,0.00,,,0.00,Wunderground v.1.15,2013-10-25 15:51:00,
2013-10-25 11:56:00,32.8,29.6,30.43,NW,326,2.0,6.0,88,0.00,,,0.00,Wunderground v.1.15,2013-10-25 15:56:00,
2013-10-25 12:01:00,32.7,29.8,30.43,NNW,328,5.0,9.0,89,0.00,,,0.00,Wunderground v.1.15,2013-10-25 16:01:00,
2013-10-25 12:06:00,33.1,29.9,30.43,NNE,19,0.0,9.0,88,0.00,,,0.00,Wunderground v.1.15,2013-10-25 16:06:00,
2013-10-25 12:11:00,34.0,31.1,30.43,WSW,248,3.0,10.0,89,0.00,,,0.00,Wunderground v.1.15,2013-10-25 16:11:00,
2013-10-25 12:17:00,34.1,30.4,30.43,SSW,209,3.0,10.0,86,0.00,,,0.00,Wunderground v.1.15,2013-10-25 16:17:00,
2013-10-25 12:22:00,33.5,29.8,30.43,West,276,5.0,8.0,86,0.00,,,0.00,Wunderground v.1.15,2013-10-25 16:22:00,
2013-10-25 12:27:00,33.3,30.4,30.43,NNW,336,0.0,9.0,89,0.00,,,0.00,Wunderground v.1.15,2013-10-25 16:27:00,
2013-10-25 12:31:00,33.9,30.2,30.43,NW,319,5.0,8.0,86,0.00,,,0.00,Wunderground v.1.15,2013-10-25 16:31:00,
2013-10-25 12:36:00,33.7,29.4,30.43,WNW,293,2.0,11.0,84,0.00,,,0.00,Wunderground v.1.15,2013-10-25 16:36:00,
2013-10-25 12:41:00,33.6,29.3,30.43,NW,309,0.0,5.0,84,0.00,,,0.00,Wunderground v.1.15,2013-10-25 16:41:00,
2013-10-25 12:46:00,33.6,29.6,30.43,WSW,253,3.0,6.0,85,0.00,,,0.00,Wunderground v.1.15,2013-10-25 16:46:00,
2013-10-25 12:51:00,33.3,29.6,30.43,NNW,330,3.0,5.0,86,0.00,,,0.00,Wunderground v.1.15,2013-10-25 16:51:00,
2013-10-25 12:56:00,33.2,29.8,30.43,NW,312,0.0,5.0,87,0.00,,,0.00,Wunderground v.1.15,2013-10-25 16:56:00,
2013-10-25 13:01:00,33.0,29.3,30.43,NW,309,3.0,5.0,86,0.00,,,0.00,Wunderground v.1.15,2013-10-25 17:01:00,
2013-10-25 13:06:00,32.8,29.1,30.43,WNW,300,4.0,8.0,86,0.00,,,0.00,Wunderground v.1.15,2013-10-25 17:06:00,
2013-10-25 13:11:00,32.6,29.2,30.43,SW,225,2.0,6.0,87,0.00,,,0.00,Wunderground v.1.15,2013-10-25 17:11:00,
2013-10-25 13:16:00,32.5,29.1,30.42,WSW,243,3.0,6.0,87,0.00,,,0.00,Wunderground v.1.15,2013-10-25 17:16:00,
2013-10-25 13:22:00,32.3,28.9,30.42,SW,229,0.0,2.0,87,0.00,,,0.00,Wunderground v.1.15,2013-10-25 17:22:00,
2013-10-25 13:27:00,32.4,29.2,30.42,SW,218,2.0,2.0,88,0.00,,,0.00,Wunderground v.1.15,2013-10-25 17:27:00,
2013-10-25 13:32:00,32.3,28.9,30.42,North,8,0.0,5.0,87,0.00,,,0.00,Wunderground v.1.15,2013-10-25 17:32:00,
2013-10-25 13:36:00,32.3,28.9,30.41,NW,304,0.0,5.0,87,0.00,,,0.00,Wunderground v.1.15,2013-10-25 17:36:00,
2013-10-25 13:42:00,32.6,29.4,30.41,SW,229,2.0,2.0,88,0.00,,,0.00,Wunderground v.1.15,2013-10-25 17:42:00,
2013-10-25 13:47:00,32.8,29.6,30.41,NNE,33,1.0,5.0,88,0.00,,,0.00,Wunderground v.1.15,2013-10-25 17:47:00,
2013-10-25 13:51:00,32.9,29.5,30.41,WNW,288,2.0,2.0,87,0.00,,,0.00,Wunderground v.1.15,2013-10-25 17:51:00,
2013-10-25 13:56:00,33.0,29.3,30.41,West,272,0.0,7.0,86,0.00,,,0.00,Wunderground v.1.15,2013-10-25 17:56:00,
2013-10-25 14:01:00,32.9,29.2,30.41,SW,233,2.0,3.0,86,0.00,,,0.00,Wunderground v.1.15,2013-10-25 18:01:00,
2013-10-25 14:06:00,32.8,29.4,30.41,WSW,248,3.0,4.0,87,0.00,,,0.00,Wunderground v.1.15,2013-10-25 18:06:00,
2013-10-25 14:11:00,32.9,29.5,30.40,West,260,0.0,1.0,87,0.00,,,0.00,Wunderground v.1.15,2013-10-25 18:11:00,
2013-10-25 14:16:00,33.1,29.4,30.41,WSW,238,0.0,4.0,86,0.00,,,0.00,Wunderground v.1.15,2013-10-25 18:16:00,
2013-10-25 14:21:00,33.2,29.5,30.41,NNE,33,1.0,3.0,86,0.00,,,0.00,Wunderground v.1.15,2013-10-25 18:21:00,
2013-10-25 14:26:00,33.4,29.7,30.41,West,266,3.0,5.0,86,0.00,,,0.00,Wunderground v.1.15,2013-10-25 18:26:00,
2013-10-25 14:31:00,33.3,29.0,30.41,SW,228,1.0,8.0,84,0.00,,,0.00,Wunderground v.1.15,2013-10-25 18:31:00,
2013-10-25 14:36:00,33.3,28.7,30.41,West,268,1.0,8.0,83,0.00,,,0.00,Wunderground v.1.15,2013-10-25 18:36:00,
2013-10-25 14:41:00,33.2,28.6,30.40,WNW,292,0.0,4.0,83,0.00,,,0.00,Wunderground v.1.15,2013-10-25 18:41:00,
2013-10-25 14:46:00,33.2,28.6,30.41,South,187,2.0,7.0,83,0.00,,,0.00,Wunderground v.1.15,2013-10-25 18:46:00,
2013-10-25 14:51:00,33.1,28.5,30.40,WNW,290,3.0,7.0,83,0.00,,,0.00,Wunderground v.1.15,2013-10-25 18:51:00,
2013-10-25 14:56:00,32.9,28.6,30.41,WNW,288,3.0,9.0,84,0.00,,,0.00,Wunderground v.1.15,2013-10-25 18:56:00,
2013-10-25 15:01:00,33.0,29.0,30.41,West,273,0.0,3.0,85,0.00,,,0.00,Wunderground v.1.15,2013-10-25 19:01:00,
2013-10-25 15:06:00,33.3,29.0,30.41,WSW,245,5.0,5.0,84,0.00,,,0.00,Wunderground v.1.15,2013-10-25 19:06:00,
2013-10-25 15:11:00,33.5,28.9,30.41,WSW,248,2.0,4.0,83,0.00,,,0.00,Wunderground v.1.15,2013-10-25 19:11:00,
2013-10-25 15:16:00,33.7,28.5,30.41,SW,229,4.0,9.0,81,0.00,,,0.01,Wunderground v.1.15,2013-10-25 19:16:00,
2013-10-25 15:21:00,33.6,28.7,30.41,WSW,253,0.0,6.0,82,0.00,,,0.01,Wunderground v.1.15,2013-10-25 19:21:00,
2013-10-25 15:26:00,33.7,28.8,30.41,WSW,246,3.0,6.0,82,0.00,,,0.01,Wunderground v.1.15,2013-10-25 19:26:00,
2013-10-25 15:31:00,33.6,28.4,30.41,SE,127,1.0,5.0,81,0.00,,,0.01,Wunderground v.1.15,2013-10-25 19:31:00,
2013-10-25 15:37:00,33.5,28.3,30.41,WNW,297,0.0,5.0,81,0.00,,,0.01,Wunderground v.1.15,2013-10-25 19:37:00,
2013-10-25 15:42:00,33.7,28.5,30.41,SW,231,5.0,6.0,81,0.00,,,0.01,Wunderground v.1.15,2013-10-25 19:42:00,
2013-10-25 15:47:00,34.0,29.1,30.41,WSW,243,2.0,6.0,82,0.00,,,0.01,Wunderground v.1.15,2013-10-25 19:47:00,
2013-10-25 15:52:00,34.1,28.9,30.41,West,262,1.0,3.0,81,0.00,,,0.01,Wunderground v.1.15,2013-10-25 19:52:00,
2013-10-25 15:57:00,34.1,28.6,30.41,WNW,284,1.0,7.0,80,0.00,,,0.01,Wunderground v.1.15,2013-10-25 19:57:00,
2013-10-25 16:02:00,34.1,28.9,30.41,WNW,283,5.0,9.0,81,0.00,,,0.01,Wunderground v.1.15,2013-10-25 20:02:00,
2013-10-25 16:07:00,33.9,28.7,30.41,WSW,247,0.0,9.0,81,0.00,,,0.01,Wunderground v.1.15,2013-10-25 20:07:00,
2013-10-25 16:12:00,34.0,28.8,30.41,South,186,3.0,3.0,81,0.00,,,0.01,Wunderground v.1.15,2013-10-25 20:12:00,
2013-10-25 16:17:00,34.1,28.9,30.41,West,266,3.0,7.0,81,0.00,,,0.01,Wunderground v.1.15,2013-10-25 20:17:00,
2013-10-25 16:22:00,34.1,28.9,30.41,WSW,253,4.0,6.0,81,0.00,,,0.01,Wunderground v.1.15,2013-10-25 20:22:00,
2013-10-25 16:27:00,33.9,28.7,30.41,West,260,5.0,7.0,81,0.00,,,0.01,Wunderground v.1.15,2013-10-25 20:27:00,
2013-10-25 16:32:00,33.7,28.2,30.41,West,274,3.0,4.0,80,0.00,,,0.01,Wunderground v.1.15,2013-10-25 20:32:00,
2013-10-25 16:37:00,33.7,28.5,30.41,NW,318,3.0,6.0,81,0.00,,,0.01,Wunderground v.1.15,2013-10-25 20:37:00,
2013-10-25 16:42:00,33.6,28.1,30.41,SW,215,3.0,6.0,80,0.00,,,0.02,Wunderground v.1.15,2013-10-25 20:42:00,
2013-10-25 16:47:00,33.3,27.8,30.41,WNW,285,0.0,6.0,80,0.00,,,0.02,Wunderground v.1.15,2013-10-25 20:47:00,
2013-10-25 16:52:00,33.3,28.1,30.41,WSW,246,0.0,2.0,81,0.00,,,0.02,Wunderground v.1.15,2013-10-25 20:52:00,
2013-10-25 16:57:00,33.9,28.7,30.41,SW,214,0.0,3.0,81,0.00,,,0.02,Wunderground v.1.15,2013-10-25 20:57:00,
2013-10-25 17:02:00,34.3,28.5,30.40,North,358,3.0,4.0,79,0.00,,,0.02,Wunderground v.1.15,2013-10-25 21:02:00,
2013-10-25 17:07:00,34.5,28.3,30.40,NNW,328,1.0,6.0,78,0.00,,,0.02,Wunderground v.1.15,2013-10-25 21:07:00,
2013-10-25 17:12:00,34.6,28.1,30.40,SW,236,0.0,5.0,77,0.00,,,0.02,Wunderground v.1.15,2013-10-25 21:12:00,
2013-10-25 17:17:00,34.7,28.5,30.40,WSW,238,2.0,5.0,78,0.00,,,0.02,Wunderground v.1.15,2013-10-25 21:17:00,
2013-10-25 17:22:00,34.6,28.1,30.40,WNW,295,1.0,3.0,77,0.00,,,0.02,Wunderground v.1.15,2013-10-25 21:22:00,
2013-10-25 17:27:00,34.5,28.0,30.40,WNW,300,1.0,4.0,77,0.00,,,0.02,Wunderground v.1.15,2013-10-25 21:27:00,
2013-10-25 17:32:00,34.3,28.2,30.40,North,354,0.0,4.0,78,0.00,,,0.02,Wunderground v.1.15,2013-10-25 21:32:00,
2013-10-25 17:37:00,34.1,27.6,30.40,SW,232,5.0,6.0,77,0.00,,,0.02,Wunderground v.1.15,2013-10-25 21:37:00,
2013-10-25 17:42:00,34.0,27.9,30.39,WNW,291,1.0,2.0,78,0.00,,,0.02,Wunderground v.1.15,2013-10-25 21:42:00,
2013-10-25 17:47:00,33.9,28.1,30.39,WSW,243,3.0,5.0,79,0.00,,,0.02,Wunderground v.1.15,2013-10-25 21:47:00,
2013-10-25 17:52:00,33.7,27.9,30.39,WNW,297,4.0,4.0,79,0.00,,,0.02,Wunderground v.1.15,2013-10-25 21:52:00,
2013-10-25 17:57:00,33.6,28.1,30.39,WSW,253,1.0,6.0,80,0.00,,,0.02,Wunderground v.1.15,2013-10-25 21:57:00,
2013-10-25 18:02:00,33.6,28.4,30.40,West,277,1.0,3.0,81,0.00,,,0.02,Wunderground v.1.15,2013-10-25 22:02:00,
2013-10-25 18:07:00,33.6,28.4,30.40,SW,219,4.0,5.0,81,0.00,,,0.02,Wunderground v.1.15,2013-10-25 22:07:00,
2013-10-25 18:12:00,33.5,28.3,30.40,SW,217,1.0,5.0,81,0.00,,,0.02,Wunderground v.1.15,2013-10-25 22:12:00,
2013-10-25 18:17:00,33.4,28.2,30.40,WSW,246,0.0,5.0,81,0.00,,,0.02,Wunderground v.1.15,2013-10-25 22:17:00,
2013-10-25 18:22:00,33.1,27.9,30.40,WNW,294,0.0,1.0,81,0.00,,,0.02,Wunderground v.1.15,2013-10-25 22:22:00,
2013-10-25 18:27:00,32.7,27.5,30.40,West,271,0.0,2.0,81,0.00,,,0.02,Wunderground v.1.15,2013-10-25 22:27:00,
2013-10-25 18:32:00,32.4,27.5,30.40,WSW,256,1.0,3.0,82,0.00,,,0.02,Wunderground v.1.15,2013-10-25 22:32:00,
2013-10-25 18:37:00,32.1,27.2,30.40,WSW,252,0.0,3.0,82,0.00,,,0.02,Wunderground v.1.15,2013-10-25 22:37:00,
2013-10-25 18:42:00,31.7,27.1,30.40,WNW,300,0.0,1.0,83,0.00,,,0.02,Wunderground v.1.15,2013-10-25 22:42:00,
2013-10-25 18:47:00,31.5,27.2,30.40,SW,236,0.0,3.0,84,0.00,,,0.02,Wunderground v.1.15,2013-10-25 22:47:00,
2013-10-25 18:52:00,31.2,27.2,30.40,WSW,245,0.0,2.0,85,0.00,,,0.02,Wunderground v.1.15,2013-10-25 22:52:00,
2013-10-25 18:57:00,31.2,27.5,30.40,WSW,250,0.0,2.0,86,0.00,,,0.02,Wunderground v.1.15,2013-10-25 22:57:00,
2013-10-25 19:02:00,31.1,27.4,30.40,WSW,253,0.0,1.0,86,0.00,,,0.02,Wunderground v.1.15,2013-10-25 23:02:00,
2013-10-25 19:07:00,30.9,27.5,30.40,WSW,248,0.0,1.0,87,0.00,,,0.02,Wunderground v.1.15,2013-10-25 23:07:00,
2013-10-25 19:12:00,30.7,27.3,30.40,WSW,245,0.0,0.0,87,0.00,,,0.02,Wunderground v.1.15,2013-10-25 23:12:00,
2013-10-25 19:17:00,30.5,27.4,30.41,WSW,250,0.0,1.0,88,0.00,,,0.02,Wunderground v.1.15,2013-10-25 23:17:00,
2013-10-25 19:22:00,30.3,27.2,30.41,SSW,198,1.0,1.0,88,0.00,,,0.02,Wunderground v.1.15,2013-10-25 23:22:00,
2013-10-25 19:27:00,30.3,27.2,30.41,SW,221,0.0,3.0,88,0.00,,,0.02,Wunderground v.1.15,2013-10-25 23:27:00,
2013-10-25 19:32:00,30.2,27.3,30.41,SSW,207,0.0,3.0,89,0.00,,,0.02,Wunderground v.1.15,2013-10-25 23:32:00,
2013-10-25 19:37:00,30.3,27.4,30.41,SW,214,0.0,3.0,89,0.00,,,0.02,Wunderground v.1.15,2013-10-25 23:37:00,
2013-10-25 19:42:00,30.3,27.4,30.41,SW,228,0.0,1.0,89,0.00,,,0.02,Wunderground v.1.15,2013-10-25 23:42:00,
2013-10-25 19:47:00,30.3,27.4,30.41,SW,232,0.0,1.0,89,0.00,,,0.02,Wunderground v.1.15,2013-10-25 23:47:00,
2013-10-25 19:52:00,30.1,27.3,30.41,SW,232,0.0,0.0,89,0.00,,,0.02,Wunderground v.1.15,2013-10-25 23:52:00,
2013-10-25 19:57:00,29.9,27.1,30.40,SW,232,0.0,0.0,89,0.00,,,0.02,Wunderground v.1.15,2013-10-25 23:57:00,
2013-10-25 20:02:00,29.7,27.1,30.40,SW,221,0.0,0.0,90,0.00,,,0.02,Wunderground v.1.15,2013-10-26 00:02:00,
2013-10-25 20:07:00,29.5,26.9,30.40,SW,221,0.0,0.0,90,0.00,,,0.02,Wunderground v.1.15,2013-10-26 00:07:00,
2013-10-25 20:12:00,29.4,26.8,30.40,SW,236,0.0,1.0,90,0.00,,,0.02,Wunderground v.1.15,2013-10-26 00:12:00,
2013-10-25 20:17:00,29.3,26.7,30.40,SW,222,0.0,1.0,90,0.00,,,0.02,Wunderground v.1.15,2013-10-26 00:17:00,
2013-10-25 20:22:00,29.1,26.8,30.40,WSW,250,0.0,0.0,91,0.00,,,0.02,Wunderground v.1.15,2013-10-26 00:22:00,
2013-10-25 20:27:00,29.0,26.7,30.40,SW,221,0.0,1.0,91,0.00,,,0.02,Wunderground v.1.15,2013-10-26 00:27:00,
2013-10-25 20:32:00,29.0,26.7,30.40,SSE,152,0.0,1.0,91,0.00,,,0.02,Wunderground v.1.15,2013-10-26 00:32:00,
2013-10-25 20:37:00,28.6,26.3,30.40,SSW,207,0.0,1.0,91,0.00,,,0.02,Wunderground v.1.15,2013-10-26 00:37:00,
2013-10-25 20:42:00,28.6,26.6,30.40,SSW,203,0.0,1.0,92,0.00,,,0.02,Wunderground v.1.15,2013-10-26 00:42:00,
2013-10-25 20:47:00,28.5,26.5,30.40,SW,227,0.0,1.0,92,0.00,,,0.02,Wunderground v.1.15,2013-10-26 00:47:00,
2013-10-25 20:52:00,28.5,26.5,30.40,SW,227,0.0,0.0,92,0.00,,,0.02,Wunderground v.1.15,2013-10-26 00:52:00,
2013-10-25 20:57:00,28.5,26.5,30.40,SW,221,1.0,1.0,92,0.00,,,0.02,Wunderground v.1.15,2013-10-26 00:57:00,
2013-10-25 21:02:00,28.3,26.3,30.40,SW,221,0.0,0.0,92,0.00,,,0.02,Wunderground v.1.15,2013-10-26 01:02:00,
2013-10-25 21:07:00,27.7,25.7,30.40,SSW,193,0.0,1.0,92,0.00,,,0.02,Wunderground v.1.15,2013-10-26 01:07:00,
2013-10-25 21:12:00,27.5,25.5,30.40,SSW,193,0.0,0.0,92,0.00,,,0.02,Wunderground v.1.15,2013-10-26 01:12:00,
2013-10-25 21:17:00,27.1,25.1,30.40,SSW,193,0.0,0.0,92,0.00,,,0.02,Wunderground v.1.15,2013-10-26 01:17:00,
2013-10-25 21:22:00,26.7,24.9,30.40,SSW,193,0.0,0.0,93,0.00,,,0.02,Wunderground v.1.15,2013-10-26 01:22:00,
2013-10-25 21:27:00,26.5,24.8,30.40,SSW,193,0.0,0.0,93,0.00,,,0.02,Wunderground v.1.15,2013-10-26 01:27:00,
2013-10-25 21:32:00,26.3,24.8,30.40,SSW,193,0.0,0.0,94,0.00,,,0.02,Wunderground v.1.15,2013-10-26 01:32:00,
2013-10-25 21:37:00,26.2,25.0,30.40,SSW,193,0.0,0.0,95,0.00,,,0.02,Wunderground v.1.15,2013-10-26 01:37:00,
2013-10-25 21:42:00,26.5,25.3,30.40,SSW,210,0.0,1.0,95,0.00,,,0.02,Wunderground v.1.15,2013-10-26 01:42:00,
2013-10-25 21:47:00,26.6,25.4,30.40,SSW,210,0.0,1.0,95,0.00,,,0.02,Wunderground v.1.15,2013-10-26 01:47:00,
2013-10-25 21:52:00,26.7,25.5,30.40,SSW,210,0.0,0.0,95,0.00,,,0.02,Wunderground v.1.15,2013-10-26 01:52:00,
2013-10-25 21:57:00,26.7,25.7,30.40,SSW,210,0.0,0.0,96,0.00,,,0.02,Wunderground v.1.15,2013-10-26 01:57:00,
2013-10-25 22:02:00,26.5,25.3,30.40,SSW,210,0.0,0.0,95,0.00,,,0.02,Wunderground v.1.15,2013-10-26 02:02:00,
2013-10-25 22:07:00,26.1,24.9,30.40,SSW,210,0.0,0.0,95,0.00,,,0.02,Wunderground v.1.15,2013-10-26 02:07:00,
2013-10-25 22:12:00,26.0,24.8,30.40,SW,224,0.0,0.0,95,0.00,,,0.02,Wunderground v.1.15,2013-10-26 02:12:00,
2013-10-25 22:17:00,26.2,25.2,30.40,SW,224,0.0,1.0,96,0.00,,,0.02,Wunderground v.1.15,2013-10-26 02:17:00,
2013-10-25 22:22:00,26.3,25.3,30.40,SSW,211,0.0,0.0,96,0.00,,,0.02,Wunderground v.1.15,2013-10-26 02:22:00,
2013-10-25 22:27:00,26.5,25.8,30.40,WSW,248,0.0,1.0,97,0.00,,,0.02,Wunderground v.1.15,2013-10-26 02:27:00,
2013-10-25 22:32:00,26.1,25.1,30.40,SE,141,0.0,1.0,96,0.00,,,0.02,Wunderground v.1.15,2013-10-26 02:32:00,
2013-10-25 22:37:00,26.0,25.0,30.40,SE,141,0.0,1.0,96,0.00,,,0.02,Wunderground v.1.15,2013-10-26 02:37:00,
2013-10-25 22:42:00,25.8,24.8,30.40,SE,141,0.0,0.0,96,0.00,,,0.02,Wunderground v.1.15,2013-10-26 02:42:00,
2013-10-25 22:47:00,25.8,24.8,30.40,SE,141,0.0,1.0,96,0.00,,,0.02,Wunderground v.1.15,2013-10-26 02:47:00,
2013-10-25 22:52:00,25.7,24.7,30.40,SSE,156,0.0,0.0,96,0.00,,,0.02,Wunderground v.1.15,2013-10-26 02:52:00,
2013-10-25 22:57:00,25.7,24.7,30.40,SSE,158,0.0,0.0,96,0.00,,,0.02,Wunderground v.1.15,2013-10-26 02:57:00,
2013-10-25 23:02:00,25.6,24.6,30.40,SSE,158,0.0,0.0,96,0.00,,,0.02,Wunderground v.1.15,2013-10-26 03:02:00,
2013-10-25 23:07:00,25.3,24.3,30.40,SSE,158,0.0,0.0,96,0.00,,,0.02,Wunderground v.1.15,2013-10-26 03:07:00,
2013-10-25 23:12:00,25.0,24.0,30.40,SSE,158,0.0,0.0,96,0.00,,,0.02,Wunderground v.1.15,2013-10-26 03:12:00,
2013-10-25 23:17:00,25.3,24.6,30.40,SSE,158,0.0,0.0,97,0.00,,,0.02,Wunderground v.1.15,2013-10-26 03:17:00,
2013-10-25 23:22:00,25.6,24.9,30.40,SSE,162,0.0,0.0,97,0.00,,,0.02,Wunderground v.1.15,2013-10-26 03:22:00,
2013-10-25 23:27:00,26.0,25.5,30.40,WSW,255,0.0,0.0,98,0.00,,,0.02,Wunderground v.1.15,2013-10-26 03:27:00,
2013-10-25 23:32:00,26.1,25.6,30.40,WSW,255,0.0,0.0,98,0.00,,,0.02,Wunderground v.1.15,2013-10-26 03:32:00,
2013-10-25 23:37:00,25.9,25.2,30.40,WSW,255,0.0,0.0,97,0.00,,,0.02,Wunderground v.1.15,2013-10-26 03:37:00,
2013-10-25 23:42:00,25.4,24.4,30.40,ESE,122,1.0,1.0,96,0.00,,,0.02,Wunderground v.1.15,2013-10-26 03:42:00,
2013-10-25 23:47:00,25.2,24.5,30.40,ESE,122,1.0,1.0,97,0.00,,,0.02,Wunderground v.1.15,2013-10-26 03:47:00,
2013-10-25 23:52:00,25.2,24.5,30.40,ESE,123,0.0,1.0,97,0.00,,,0.02,Wunderground v.1.15,2013-10-26 03:52:00,
2013-10-25 23:57:00,25.1,24.4,30.40,ESE,122,0.0,1.0,97,0.00,,,0.02,Wunderground v.1.15,2013-10-26 03:57:00,